sensor_id;sensor_type;location;lat;lon;timestamp;temperature;humidity
72320;SHT30;60269;52.502;16.732;2024-03-02T00:02:42;9.35;98.52
72320;SHT30;60269;52.502;16.732;2024-03-02T00:06:13;9.38;98.39
72320;SHT30;60269;52.502;16.732;2024-03-02T00:09:45;9.39;98.33
72320;SHT30;60269;52.502;16.732;2024-03-02T00:13:20;9.37;98.37
72320;SHT30;60269;52.502;16.732;2024-03-02T00:16:55;9.38;98.34
72320;SHT30;60269;52.502;16.732;2024-03-02T00:20:28;9.38;98.29
72320;SHT30;60269;52.502;16.732;2024-03-02T00:24:01;9.34;98.31
72320;SHT30;60269;52.502;16.732;2024-03-02T00:27:38;9.35;98.42
72320;SHT30;60269;52.502;16.732;2024-03-02T00:31:12;9.30;98.38
72320;SHT30;60269;52.502;16.732;2024-03-02T00:34:44;9.34;98.40
72320;SHT30;60269;52.502;16.732;2024-03-02T00:38:16;9.34;98.31
72320;SHT30;60269;52.502;16.732;2024-03-02T00:41:48;9.34;98.30
72320;SHT30;60269;52.502;16.732;2024-03-02T00:45:20;9.35;98.30
72320;SHT30;60269;52.502;16.732;2024-03-02T00:48:57;9.35;98.26
72320;SHT30;60269;52.502;16.732;2024-03-02T00:52:29;9.42;98.17
72320;SHT30;60269;52.502;16.732;2024-03-02T00:56:02;9.41;98.13
72320;SHT30;60269;52.502;16.732;2024-03-02T00:59:33;9.41;98.16
72320;SHT30;60269;52.502;16.732;2024-03-02T01:03:05;9.42;98.08
72320;SHT30;60269;52.502;16.732;2024-03-02T01:06:37;9.45;98.02
72320;SHT30;60269;52.502;16.732;2024-03-02T01:10:09;9.47;97.98
72320;SHT30;60269;52.502;16.732;2024-03-02T01:13:42;9.44;98.03
72320;SHT30;60269;52.502;16.732;2024-03-02T01:17:14;9.47;97.86
72320;SHT30;60269;52.502;16.732;2024-03-02T01:20:46;9.47;97.92
72320;SHT30;60269;52.502;16.732;2024-03-02T01:24:18;9.44;97.82
72320;SHT30;60269;52.502;16.732;2024-03-02T01:27:50;9.39;97.88
72320;SHT30;60269;52.502;16.732;2024-03-02T01:31:22;9.39;97.87
72320;SHT30;60269;52.502;16.732;2024-03-02T01:34:55;9.37;97.91
72320;SHT30;60269;52.502;16.732;2024-03-02T01:38:27;9.35;98.04
72320;SHT30;60269;52.502;16.732;2024-03-02T01:42:00;9.30;98.10
72320;SHT30;60269;52.502;16.732;2024-03-02T01:45:32;9.26;98.11
72320;SHT30;60269;52.502;16.732;2024-03-02T01:49:06;9.27;98.02
72320;SHT30;60269;52.502;16.732;2024-03-02T01:52:38;9.26;98.08
72320;SHT30;60269;52.502;16.732;2024-03-02T01:56:10;9.18;98.06
72320;SHT30;60269;52.502;16.732;2024-03-02T01:59:42;9.16;98.25
72320;SHT30;60269;52.502;16.732;2024-03-02T02:03:15;9.13;98.21
72320;SHT30;60269;52.502;16.732;2024-03-02T02:06:47;9.11;98.10
72320;SHT30;60269;52.502;16.732;2024-03-02T02:10:19;9.07;98.33
72320;SHT30;60269;52.502;16.732;2024-03-02T02:13:51;9.04;98.34
72320;SHT30;60269;52.502;16.732;2024-03-02T02:17:23;9.03;98.44
72320;SHT30;60269;52.502;16.732;2024-03-02T02:20:55;9.03;98.37
72320;SHT30;60269;52.502;16.732;2024-03-02T02:24:27;9.04;98.19
72320;SHT30;60269;52.502;16.732;2024-03-02T02:27:59;9.07;98.06
72320;SHT30;60269;52.502;16.732;2024-03-02T02:31:40;9.06;97.95
72320;SHT30;60269;52.502;16.732;2024-03-02T02:35:13;9.04;97.96
72320;SHT30;60269;52.502;16.732;2024-03-02T02:38:47;9.13;97.56
72320;SHT30;60269;52.502;16.732;2024-03-02T02:42:20;9.10;97.53
72320;SHT30;60269;52.502;16.732;2024-03-02T02:45:52;9.08;97.54
72320;SHT30;60269;52.502;16.732;2024-03-02T02:49:24;9.07;97.39
72320;SHT30;60269;52.502;16.732;2024-03-02T02:52:56;9.01;97.35
72320;SHT30;60269;52.502;16.732;2024-03-02T02:56:28;9.01;97.34
72320;SHT30;60269;52.502;16.732;2024-03-02T03:00:02;9.00;97.35
72320;SHT30;60269;52.502;16.732;2024-03-02T03:03:37;8.96;97.28
72320;SHT30;60269;52.502;16.732;2024-03-02T03:07:09;8.96;97.29
72320;SHT30;60269;52.502;16.732;2024-03-02T03:10:41;8.96;97.25
72320;SHT30;60269;52.502;16.732;2024-03-02T03:14:13;8.94;97.19
72320;SHT30;60269;52.502;16.732;2024-03-02T03:17:45;8.90;97.26
72320;SHT30;60269;52.502;16.732;2024-03-02T03:21:19;8.91;97.00
72320;SHT30;60269;52.502;16.732;2024-03-02T03:24:51;8.89;97.02
72320;SHT30;60269;52.502;16.732;2024-03-02T03:28:23;8.86;97.03
72320;SHT30;60269;52.502;16.732;2024-03-02T03:31:55;8.84;96.89
72320;SHT30;60269;52.502;16.732;2024-03-02T03:35:27;8.83;96.83
72320;SHT30;60269;52.502;16.732;2024-03-02T03:38:59;8.81;96.72
72320;SHT30;60269;52.502;16.732;2024-03-02T03:42:33;8.81;96.78
72320;SHT30;60269;52.502;16.732;2024-03-02T03:46:05;8.75;96.88
72320;SHT30;60269;52.502;16.732;2024-03-02T03:49:37;8.73;96.91
72320;SHT30;60269;52.502;16.732;2024-03-02T03:53:09;8.73;96.96
72320;SHT30;60269;52.502;16.732;2024-03-02T03:56:42;8.72;96.89
72320;SHT30;60269;52.502;16.732;2024-03-02T04:00:14;8.72;96.87
72320;SHT30;60269;52.502;16.732;2024-03-02T04:03:46;8.72;96.78
72320;SHT30;60269;52.502;16.732;2024-03-02T04:07:18;8.73;96.87
72320;SHT30;60269;52.502;16.732;2024-03-02T04:10:50;8.69;96.89
72320;SHT30;60269;52.502;16.732;2024-03-02T04:14:22;8.68;96.79
72320;SHT30;60269;52.502;16.732;2024-03-02T04:17:53;8.69;96.78
72320;SHT30;60269;52.502;16.732;2024-03-02T04:21:27;8.68;96.66
72320;SHT30;60269;52.502;16.732;2024-03-02T04:24:59;8.68;96.82
72320;SHT30;60269;52.502;16.732;2024-03-02T04:28:31;8.66;96.73
72320;SHT30;60269;52.502;16.732;2024-03-02T04:32:03;8.65;96.71
72320;SHT30;60269;52.502;16.732;2024-03-02T04:35:38;8.63;96.68
72320;SHT30;60269;52.502;16.732;2024-03-02T04:39:10;8.63;96.81
72320;SHT30;60269;52.502;16.732;2024-03-02T04:42:42;8.65;96.70
72320;SHT30;60269;52.502;16.732;2024-03-02T04:46:14;8.63;96.79
72320;SHT30;60269;52.502;16.732;2024-03-02T04:49:47;8.65;96.62
72320;SHT30;60269;52.502;16.732;2024-03-02T04:53:18;8.63;96.56
72320;SHT30;60269;52.502;16.732;2024-03-02T04:56:50;8.66;96.49
72320;SHT30;60269;52.502;16.732;2024-03-02T05:00:23;8.65;96.58
72320;SHT30;60269;52.502;16.732;2024-03-02T05:03:55;8.65;96.54
72320;SHT30;60269;52.502;16.732;2024-03-02T05:07:28;8.63;96.55
72320;SHT30;60269;52.502;16.732;2024-03-02T05:11:00;8.63;96.52
72320;SHT30;60269;52.502;16.732;2024-03-02T05:14:52;8.63;96.62
72320;SHT30;60269;52.502;16.732;2024-03-02T05:18:24;8.65;96.35
72320;SHT30;60269;52.502;16.732;2024-03-02T05:21:56;8.68;96.54
72320;SHT30;60269;52.502;16.732;2024-03-02T05:25:28;8.62;96.39
72320;SHT30;60269;52.502;16.732;2024-03-02T05:29:00;8.60;96.49
72320;SHT30;60269;52.502;16.732;2024-03-02T05:32:35;8.63;96.32
72320;SHT30;60269;52.502;16.732;2024-03-02T05:36:08;8.66;96.27
72320;SHT30;60269;52.502;16.732;2024-03-02T05:39:40;8.66;96.21
72320;SHT30;60269;52.502;16.732;2024-03-02T05:43:12;8.68;96.04
72320;SHT30;60269;52.502;16.732;2024-03-02T05:46:44;8.69;96.00
72320;SHT30;60269;52.502;16.732;2024-03-02T05:50:16;8.70;96.02
72320;SHT30;60269;52.502;16.732;2024-03-02T05:53:47;8.69;95.89
72320;SHT30;60269;52.502;16.732;2024-03-02T05:57:19;8.70;95.93
72320;SHT30;60269;52.502;16.732;2024-03-02T06:01:19;8.62;96.11
72320;SHT30;60269;52.502;16.732;2024-03-02T06:04:53;8.55;96.25
72320;SHT30;60269;52.502;16.732;2024-03-02T06:08:25;8.50;96.42
72320;SHT30;60269;52.502;16.732;2024-03-02T06:11:57;8.48;96.52
72320;SHT30;60269;52.502;16.732;2024-03-02T06:15:29;8.46;96.59
72320;SHT30;60269;52.502;16.732;2024-03-02T06:19:02;8.35;96.66
72320;SHT30;60269;52.502;16.732;2024-03-02T06:22:34;8.25;96.87
72320;SHT30;60269;52.502;16.732;2024-03-02T06:26:06;8.12;97.30
72320;SHT30;60269;52.502;16.732;2024-03-02T06:29:38;8.15;97.24
72320;SHT30;60269;52.502;16.732;2024-03-02T06:33:10;8.17;97.23
72320;SHT30;60269;52.502;16.732;2024-03-02T06:36:42;8.21;97.03
72320;SHT30;60269;52.502;16.732;2024-03-02T06:40:15;8.32;96.87
72320;SHT30;60269;52.502;16.732;2024-03-02T06:43:47;8.53;96.39
72320;SHT30;60269;52.502;16.732;2024-03-02T06:47:19;8.72;95.63
72320;SHT30;60269;52.502;16.732;2024-03-02T06:50:52;8.84;95.19
72320;SHT30;60269;52.502;16.732;2024-03-02T06:54:24;8.89;94.91
72320;SHT30;60269;52.502;16.732;2024-03-02T06:57:56;8.93;94.74
72320;SHT30;60269;52.502;16.732;2024-03-02T07:01:28;9.00;94.67
72320;SHT30;60269;52.502;16.732;2024-03-02T07:05:00;9.06;94.27
72320;SHT30;60269;52.502;16.732;2024-03-02T07:08:32;9.17;94.02
72320;SHT30;60269;52.502;16.732;2024-03-02T07:12:04;9.18;94.00
72320;SHT30;60269;52.502;16.732;2024-03-02T07:15:36;9.24;93.62
72320;SHT30;60269;52.502;16.732;2024-03-02T07:19:46;9.31;93.56
72320;SHT30;60269;52.502;16.732;2024-03-02T07:23:18;9.27;93.51
72320;SHT30;60269;52.502;16.732;2024-03-02T07:26:51;9.32;93.63
72320;SHT30;60269;52.502;16.732;2024-03-02T07:30:26;9.38;93.51
72320;SHT30;60269;52.502;16.732;2024-03-02T07:33:58;9.47;93.11
72320;SHT30;60269;52.502;16.732;2024-03-02T07:37:30;9.52;92.89
72320;SHT30;60269;52.502;16.732;2024-03-02T07:41:02;9.51;93.01
72320;SHT30;60269;52.502;16.732;2024-03-02T07:44:36;9.59;92.56
72320;SHT30;60269;52.502;16.732;2024-03-02T07:48:11;9.66;92.21
72320;SHT30;60269;52.502;16.732;2024-03-02T07:51:43;9.69;92.04
72320;SHT30;60269;52.502;16.732;2024-03-02T07:55:15;9.63;92.29
72320;SHT30;60269;52.502;16.732;2024-03-02T07:58:48;9.65;92.71
72320;SHT30;60269;52.502;16.732;2024-03-02T08:02:21;9.75;92.26
72320;SHT30;60269;52.502;16.732;2024-03-02T08:05:53;9.79;92.35
72320;SHT30;60269;52.502;16.732;2024-03-02T08:09:25;9.96;91.77
72320;SHT30;60269;52.502;16.732;2024-03-02T08:12:58;10.02;91.60
72320;SHT30;60269;52.502;16.732;2024-03-02T08:16:30;10.06;91.20
72320;SHT30;60269;52.502;16.732;2024-03-02T08:20:01;10.12;91.16
72320;SHT30;60269;52.502;16.732;2024-03-02T08:23:35;10.25;91.10
72320;SHT30;60269;52.502;16.732;2024-03-02T08:27:07;10.44;90.51
72320;SHT30;60269;52.502;16.732;2024-03-02T08:30:39;10.68;89.90
72320;SHT30;60269;52.502;16.732;2024-03-02T08:34:11;10.86;88.83
72320;SHT30;60269;52.502;16.732;2024-03-02T08:37:43;11.01;88.48
72320;SHT30;60269;52.502;16.732;2024-03-02T08:41:15;11.05;88.04
72320;SHT30;60269;52.502;16.732;2024-03-02T08:44:48;11.24;88.36
72320;SHT30;60269;52.502;16.732;2024-03-02T08:48:20;11.27;87.82
72320;SHT30;60269;52.502;16.732;2024-03-02T08:51:52;11.29;87.68
72320;SHT30;60269;52.502;16.732;2024-03-02T08:55:27;11.30;87.31
72320;SHT30;60269;52.502;16.732;2024-03-02T08:59:00;11.36;86.99
72320;SHT30;60269;52.502;16.732;2024-03-02T09:02:32;11.44;87.03
72320;SHT30;60269;52.502;16.732;2024-03-02T09:06:04;11.56;86.61
72320;SHT30;60269;52.502;16.732;2024-03-02T09:09:36;11.89;86.13
72320;SHT30;60269;52.502;16.732;2024-03-02T09:13:10;12.06;85.08
72320;SHT30;60269;52.502;16.732;2024-03-02T09:16:42;12.37;84.75
72320;SHT30;60269;52.502;16.732;2024-03-02T09:20:14;12.66;84.65
72320;SHT30;60269;52.502;16.732;2024-03-02T09:23:46;12.64;83.10
72320;SHT30;60269;52.502;16.732;2024-03-02T09:27:20;12.76;82.89
72320;SHT30;60269;52.502;16.732;2024-03-02T09:30:52;12.97;83.16
72320;SHT30;60269;52.502;16.732;2024-03-02T09:34:27;13.03;82.20
72320;SHT30;60269;52.502;16.732;2024-03-02T09:37:59;13.26;82.05
72320;SHT30;60269;52.502;16.732;2024-03-02T09:41:33;13.36;81.46
72320;SHT30;60269;52.502;16.732;2024-03-02T09:45:05;13.66;81.25
72320;SHT30;60269;52.502;16.732;2024-03-02T09:48:37;13.86;80.45
72320;SHT30;60269;52.502;16.732;2024-03-02T09:52:10;13.87;79.56
72320;SHT30;60269;52.502;16.732;2024-03-02T09:55:46;13.77;79.35
72320;SHT30;60269;52.502;16.732;2024-03-02T09:59:18;14.21;78.82
72320;SHT30;60269;52.502;16.732;2024-03-02T10:02:52;14.10;77.57
72320;SHT30;60269;52.502;16.732;2024-03-02T10:06:26;14.54;76.87
72320;SHT30;60269;52.502;16.732;2024-03-02T10:10:14;15.14;75.84
72320;SHT30;60269;52.502;16.732;2024-03-02T10:13:46;15.78;73.81
72320;SHT30;60269;52.502;16.732;2024-03-02T10:17:18;15.91;74.21
72320;SHT30;60269;52.502;16.732;2024-03-02T10:20:51;15.74;72.68
72320;SHT30;60269;52.502;16.732;2024-03-02T10:24:23;15.22;72.80
72320;SHT30;60269;52.502;16.732;2024-03-02T10:27:57;15.17;73.59
72320;SHT30;60269;52.502;16.732;2024-03-02T10:31:30;15.57;74.92
72320;SHT30;60269;52.502;16.732;2024-03-02T10:35:03;15.88;71.35
72320;SHT30;60269;52.502;16.732;2024-03-02T10:38:36;15.96;72.93
72320;SHT30;60269;52.502;16.732;2024-03-02T10:42:08;16.33;71.70
72320;SHT30;60269;52.502;16.732;2024-03-02T10:45:41;16.12;71.60
72320;SHT30;60269;52.502;16.732;2024-03-02T10:49:13;15.99;69.94
72320;SHT30;60269;52.502;16.732;2024-03-02T10:52:45;16.34;69.44
72320;SHT30;60269;52.502;16.732;2024-03-02T10:56:22;16.27;72.54
72320;SHT30;60269;52.502;16.732;2024-03-02T11:00:02;16.63;68.57
72320;SHT30;60269;52.502;16.732;2024-03-02T11:03:36;16.53;70.78
72320;SHT30;60269;52.502;16.732;2024-03-02T11:07:11;16.43;70.58
72320;SHT30;60269;52.502;16.732;2024-03-02T11:10:51;16.36;69.61
72320;SHT30;60269;52.502;16.732;2024-03-02T11:14:25;16.16;69.35
72320;SHT30;60269;52.502;16.732;2024-03-02T11:17:57;16.23;69.81
72320;SHT30;60269;52.502;16.732;2024-03-02T11:21:30;16.43;69.58
72320;SHT30;60269;52.502;16.732;2024-03-02T11:25:05;16.34;71.73
72320;SHT30;60269;52.502;16.732;2024-03-02T11:28:37;16.47;68.78
72320;SHT30;60269;52.502;16.732;2024-03-02T11:32:16;16.88;69.43
72320;SHT30;60269;52.502;16.732;2024-03-02T11:35:48;16.85;68.75
72320;SHT30;60269;52.502;16.732;2024-03-02T11:39:21;17.11;68.17
72320;SHT30;60269;52.502;16.732;2024-03-02T11:42:53;17.00;68.86
72320;SHT30;60269;52.502;16.732;2024-03-02T11:46:25;16.33;69.54
72320;SHT30;60269;52.502;16.732;2024-03-02T11:49:58;16.01;70.50
72320;SHT30;60269;52.502;16.732;2024-03-02T11:53:30;15.75;71.20
72320;SHT30;60269;52.502;16.732;2024-03-02T11:57:07;15.96;72.11
72320;SHT30;60269;52.502;16.732;2024-03-02T12:00:39;16.13;71.39
72320;SHT30;60269;52.502;16.732;2024-03-02T12:04:11;16.36;70.97
72320;SHT30;60269;52.502;16.732;2024-03-02T12:07:43;16.43;71.65
72320;SHT30;60269;52.502;16.732;2024-03-02T12:11:15;16.40;71.13
72320;SHT30;60269;52.502;16.732;2024-03-02T12:14:52;16.08;71.91
72320;SHT30;60269;52.502;16.732;2024-03-02T12:18:25;16.01;72.51
72320;SHT30;60269;52.502;16.732;2024-03-02T12:21:58;15.79;73.38
72320;SHT30;60269;52.502;16.732;2024-03-02T12:25:31;15.77;73.23
72320;SHT30;60269;52.502;16.732;2024-03-02T12:29:05;15.75;73.05
72320;SHT30;60269;52.502;16.732;2024-03-02T12:32:37;15.69;73.75
72320;SHT30;60269;52.502;16.732;2024-03-02T12:36:13;15.72;73.70
72320;SHT30;60269;52.502;16.732;2024-03-02T12:39:45;15.53;74.14
72320;SHT30;60269;52.502;16.732;2024-03-02T12:43:18;15.74;73.88
72320;SHT30;60269;52.502;16.732;2024-03-02T12:46:50;15.72;73.81
72320;SHT30;60269;52.502;16.732;2024-03-02T12:50:25;15.54;73.76
72320;SHT30;60269;52.502;16.732;2024-03-02T12:53:58;15.46;74.82
72320;SHT30;60269;52.502;16.732;2024-03-02T12:57:31;15.38;74.42
72320;SHT30;60269;52.502;16.732;2024-03-02T13:01:07;15.48;74.37
72320;SHT30;60269;52.502;16.732;2024-03-02T13:04:40;15.40;74.09
72320;SHT30;60269;52.502;16.732;2024-03-02T13:08:12;15.48;74.50
72320;SHT30;60269;52.502;16.732;2024-03-02T13:11:44;15.62;73.94
72320;SHT30;60269;52.502;16.732;2024-03-02T13:15:16;15.61;73.61
72320;SHT30;60269;52.502;16.732;2024-03-02T13:18:49;15.65;72.99
72320;SHT30;60269;52.502;16.732;2024-03-02T13:22:21;15.75;73.48
72320;SHT30;60269;52.502;16.732;2024-03-02T13:25:53;15.82;72.77
72320;SHT30;60269;52.502;16.732;2024-03-02T13:29:25;15.64;72.57
72320;SHT30;60269;52.502;16.732;2024-03-02T13:32:58;15.47;74.00
72320;SHT30;60269;52.502;16.732;2024-03-02T13:36:30;15.74;72.83
72320;SHT30;60269;52.502;16.732;2024-03-02T13:40:03;15.88;71.90
72320;SHT30;60269;52.502;16.732;2024-03-02T13:43:37;15.54;71.91
72320;SHT30;60269;52.502;16.732;2024-03-02T13:47:10;15.43;74.97
72320;SHT30;60269;52.502;16.732;2024-03-02T13:50:42;15.38;73.42
72320;SHT30;60269;52.502;16.732;2024-03-02T13:54:14;15.51;72.83
72320;SHT30;60269;52.502;16.732;2024-03-02T13:57:47;15.57;74.03
72320;SHT30;60269;52.502;16.732;2024-03-02T14:01:20;15.46;74.04
72320;SHT30;60269;52.502;16.732;2024-03-02T14:04:53;15.65;74.53
72320;SHT30;60269;52.502;16.732;2024-03-02T14:08:25;15.68;73.19
72320;SHT30;60269;52.502;16.732;2024-03-02T14:11:58;15.72;73.74
72320;SHT30;60269;52.502;16.732;2024-03-02T14:15:32;15.74;74.49
72320;SHT30;60269;52.502;16.732;2024-03-02T14:19:04;15.31;74.42
72320;SHT30;60269;52.502;16.732;2024-03-02T14:22:36;15.24;74.59
72320;SHT30;60269;52.502;16.732;2024-03-02T14:26:09;15.20;74.91
72320;SHT30;60269;52.502;16.732;2024-03-02T14:29:42;15.07;74.91
72320;SHT30;60269;52.502;16.732;2024-03-02T14:33:15;14.95;75.73
72320;SHT30;60269;52.502;16.732;2024-03-02T14:36:48;14.78;76.66
72320;SHT30;60269;52.502;16.732;2024-03-02T14:40:20;14.71;75.84
72320;SHT30;60269;52.502;16.732;2024-03-02T14:43:53;14.58;77.41
72320;SHT30;60269;52.502;16.732;2024-03-02T14:47:25;14.28;78.43
72320;SHT30;60269;52.502;16.732;2024-03-02T14:50:57;14.03;79.80
72320;SHT30;60269;52.502;16.732;2024-03-02T14:54:29;13.87;80.05
72320;SHT30;60269;52.502;16.732;2024-03-02T14:58:02;13.72;79.96
72320;SHT30;60269;52.502;16.732;2024-03-02T15:01:34;13.67;80.14
72320;SHT30;60269;52.502;16.732;2024-03-02T15:05:06;13.65;79.95
72320;SHT30;60269;52.502;16.732;2024-03-02T15:08:38;13.59;80.27
72320;SHT30;60269;52.502;16.732;2024-03-02T15:12:13;13.61;79.19
72320;SHT30;60269;52.502;16.732;2024-03-02T15:15:46;13.53;80.41
72320;SHT30;60269;52.502;16.732;2024-03-02T15:19:18;13.53;79.84
72320;SHT30;60269;52.502;16.732;2024-03-02T15:22:50;13.48;79.29
72320;SHT30;60269;52.502;16.732;2024-03-02T15:26:22;13.36;79.24
72320;SHT30;60269;52.502;16.732;2024-03-02T15:29:54;13.19;80.43
72320;SHT30;60269;52.502;16.732;2024-03-02T15:33:29;13.04;81.32
72320;SHT30;60269;52.502;16.732;2024-03-02T15:37:03;12.88;82.37
72320;SHT30;60269;52.502;16.732;2024-03-02T15:40:36;12.73;82.97
72320;SHT30;60269;52.502;16.732;2024-03-02T15:44:08;12.64;83.35
72320;SHT30;60269;52.502;16.732;2024-03-02T15:47:40;12.53;83.61
72320;SHT30;60269;52.502;16.732;2024-03-02T15:51:12;12.50;83.54
72320;SHT30;60269;52.502;16.732;2024-03-02T15:54:45;12.50;83.02
72320;SHT30;60269;52.502;16.732;2024-03-02T15:58:18;12.59;83.73
72320;SHT30;60269;52.502;16.732;2024-03-02T16:01:50;12.59;84.74
72320;SHT30;60269;52.502;16.732;2024-03-02T16:05:22;12.56;85.69
72320;SHT30;60269;52.502;16.732;2024-03-02T16:08:54;12.52;86.43
72320;SHT30;60269;52.502;16.732;2024-03-02T16:12:28;12.37;87.14
72320;SHT30;60269;52.502;16.732;2024-03-02T16:16:00;12.29;87.40
72320;SHT30;60269;52.502;16.732;2024-03-02T16:19:33;12.24;87.50
72320;SHT30;60269;52.502;16.732;2024-03-02T16:23:05;12.17;88.04
72320;SHT30;60269;52.502;16.732;2024-03-02T16:26:37;12.02;88.79
72320;SHT30;60269;52.502;16.732;2024-03-02T16:30:10;11.91;88.96
72320;SHT30;60269;52.502;16.732;2024-03-02T16:33:44;11.87;88.93
72320;SHT30;60269;52.502;16.732;2024-03-02T16:37:16;11.78;89.22
72320;SHT30;60269;52.502;16.732;2024-03-02T16:40:48;11.75;89.38
72320;SHT30;60269;52.502;16.732;2024-03-02T16:44:20;11.67;89.62
72320;SHT30;60269;52.502;16.732;2024-03-02T16:47:52;11.63;89.81
72320;SHT30;60269;52.502;16.732;2024-03-02T16:51:24;11.60;89.72
72320;SHT30;60269;52.502;16.732;2024-03-02T16:54:56;11.56;89.48
72320;SHT30;60269;52.502;16.732;2024-03-02T16:58:31;11.57;89.58
72320;SHT30;60269;52.502;16.732;2024-03-02T17:02:04;11.50;89.96
72320;SHT30;60269;52.502;16.732;2024-03-02T17:05:36;11.37;90.33
72320;SHT30;60269;52.502;16.732;2024-03-02T17:09:08;11.29;90.44
72320;SHT30;60269;52.502;16.732;2024-03-02T17:12:40;11.22;90.81
72320;SHT30;60269;52.502;16.732;2024-03-02T17:16:12;11.13;91.11
72320;SHT30;60269;52.502;16.732;2024-03-02T17:19:45;11.06;91.39
72320;SHT30;60269;52.502;16.732;2024-03-02T17:23:17;11.09;91.36
72320;SHT30;60269;52.502;16.732;2024-03-02T17:26:49;11.09;91.29
72320;SHT30;60269;52.502;16.732;2024-03-02T17:30:21;11.08;91.38
72320;SHT30;60269;52.502;16.732;2024-03-02T17:33:53;10.99;91.67
72320;SHT30;60269;52.502;16.732;2024-03-02T17:37:25;10.99;91.73
72320;SHT30;60269;52.502;16.732;2024-03-02T17:40:57;10.98;91.80
72320;SHT30;60269;52.502;16.732;2024-03-02T17:44:30;10.96;91.86
72320;SHT30;60269;52.502;16.732;2024-03-02T17:48:02;10.92;91.88
72320;SHT30;60269;52.502;16.732;2024-03-02T17:51:34;10.95;91.79
72320;SHT30;60269;52.502;16.732;2024-03-02T17:55:06;10.99;91.85
72320;SHT30;60269;52.502;16.732;2024-03-02T17:58:38;10.99;91.79
72320;SHT30;60269;52.502;16.732;2024-03-02T18:02:10;10.93;91.85
72320;SHT30;60269;52.502;16.732;2024-03-02T18:05:42;10.93;92.05
72320;SHT30;60269;52.502;16.732;2024-03-02T18:09:15;10.85;92.17
72320;SHT30;60269;52.502;16.732;2024-03-02T18:12:47;10.82;92.35
72320;SHT30;60269;52.502;16.732;2024-03-02T18:16:18;10.79;92.50
72320;SHT30;60269;52.502;16.732;2024-03-02T18:19:51;10.74;92.73
72320;SHT30;60269;52.502;16.732;2024-03-02T18:23:23;10.65;92.99
72320;SHT30;60269;52.502;16.732;2024-03-02T18:26:55;10.57;93.31
72320;SHT30;60269;52.502;16.732;2024-03-02T18:30:27;10.54;93.26
72320;SHT30;60269;52.502;16.732;2024-03-02T18:33:59;10.48;93.45
72320;SHT30;60269;52.502;16.732;2024-03-02T18:37:31;10.44;93.50
72320;SHT30;60269;52.502;16.732;2024-03-02T18:41:03;10.45;93.31
72320;SHT30;60269;52.502;16.732;2024-03-02T18:44:35;10.50;93.06
72320;SHT30;60269;52.502;16.732;2024-03-02T18:48:08;10.36;93.44
72320;SHT30;60269;52.502;16.732;2024-03-02T18:51:40;10.34;93.35
72320;SHT30;60269;52.502;16.732;2024-03-02T18:55:14;10.30;93.43
72320;SHT30;60269;52.502;16.732;2024-03-02T18:58:46;10.32;93.30
72320;SHT30;60269;52.502;16.732;2024-03-02T19:02:18;10.25;93.36
72320;SHT30;60269;52.502;16.732;2024-03-02T19:05:50;10.21;93.36
72320;SHT30;60269;52.502;16.732;2024-03-02T19:09:22;10.17;93.46
72320;SHT30;60269;52.502;16.732;2024-03-02T19:12:54;10.16;93.60
72320;SHT30;60269;52.502;16.732;2024-03-02T19:16:26;10.17;93.51
72320;SHT30;60269;52.502;16.732;2024-03-02T19:19:58;10.14;93.46
72320;SHT30;60269;52.502;16.732;2024-03-02T19:23:30;10.14;93.30
72320;SHT30;60269;52.502;16.732;2024-03-02T19:27:11;10.06;93.43
72320;SHT30;60269;52.502;16.732;2024-03-02T19:30:42;10.00;93.67
72320;SHT30;60269;52.502;16.732;2024-03-02T19:34:18;9.92;93.83
72320;SHT30;60269;52.502;16.732;2024-03-02T19:37:54;9.83;94.04
72320;SHT30;60269;52.502;16.732;2024-03-02T19:41:27;9.75;94.18
72320;SHT30;60269;52.502;16.732;2024-03-02T19:44:59;9.65;94.41
72320;SHT30;60269;52.502;16.732;2024-03-02T19:48:31;9.62;94.45
72320;SHT30;60269;52.502;16.732;2024-03-02T19:52:03;9.63;94.41
72320;SHT30;60269;52.502;16.732;2024-03-02T19:55:35;9.62;94.45
72320;SHT30;60269;52.502;16.732;2024-03-02T19:59:09;9.63;94.43
72320;SHT30;60269;52.502;16.732;2024-03-02T20:03:01;9.63;94.30
72320;SHT30;60269;52.502;16.732;2024-03-02T20:06:57;9.69;94.14
72320;SHT30;60269;52.502;16.732;2024-03-02T20:10:29;9.69;94.04
72320;SHT30;60269;52.502;16.732;2024-03-02T20:14:01;9.71;93.81
72320;SHT30;60269;52.502;16.732;2024-03-02T20:17:33;9.74;93.67
72320;SHT30;60269;52.502;16.732;2024-03-02T20:21:05;9.78;93.51
72320;SHT30;60269;52.502;16.732;2024-03-02T20:24:37;9.72;93.66
72320;SHT30;60269;52.502;16.732;2024-03-02T20:28:09;9.72;93.65
72320;SHT30;60269;52.502;16.732;2024-03-02T20:31:41;9.74;93.53
72320;SHT30;60269;52.502;16.732;2024-03-02T20:35:13;9.71;93.68
72320;SHT30;60269;52.502;16.732;2024-03-02T20:38:45;9.69;93.67
72320;SHT30;60269;52.502;16.732;2024-03-02T20:42:17;9.69;93.64
72320;SHT30;60269;52.502;16.732;2024-03-02T20:45:49;9.71;93.56
72320;SHT30;60269;52.502;16.732;2024-03-02T20:49:21;9.69;93.42
72320;SHT30;60269;52.502;16.732;2024-03-02T20:52:55;9.72;93.36
72320;SHT30;60269;52.502;16.732;2024-03-02T20:56:32;9.74;93.60
72320;SHT30;60269;52.502;16.732;2024-03-02T21:00:07;9.68;93.76
72320;SHT30;60269;52.502;16.732;2024-03-02T21:03:40;9.62;94.27
72320;SHT30;60269;52.502;16.732;2024-03-02T21:07:13;9.65;94.24
72320;SHT30;60269;52.502;16.732;2024-03-02T21:10:46;9.58;94.57
72320;SHT30;60269;52.502;16.732;2024-03-02T21:14:20;9.55;94.71
72320;SHT30;60269;52.502;16.732;2024-03-02T21:17:52;9.55;94.75
72320;SHT30;60269;52.502;16.732;2024-03-02T21:21:25;9.51;94.86
72320;SHT30;60269;52.502;16.732;2024-03-02T21:24:57;9.45;95.18
72320;SHT30;60269;52.502;16.732;2024-03-02T21:28:32;9.41;95.51
72320;SHT30;60269;52.502;16.732;2024-03-02T21:32:05;9.31;95.82
72320;SHT30;60269;52.502;16.732;2024-03-02T21:35:37;9.30;95.64
72320;SHT30;60269;52.502;16.732;2024-03-02T21:39:09;9.28;95.75
72320;SHT30;60269;52.502;16.732;2024-03-02T21:42:42;9.35;95.54
72320;SHT30;60269;52.502;16.732;2024-03-02T21:46:14;9.31;95.58
72320;SHT30;60269;52.502;16.732;2024-03-02T21:49:46;9.32;95.49
72320;SHT30;60269;52.502;16.732;2024-03-02T21:53:18;9.32;95.45
72320;SHT30;60269;52.502;16.732;2024-03-02T21:56:51;9.34;95.42
72320;SHT30;60269;52.502;16.732;2024-03-02T22:00:23;9.31;95.54
72320;SHT30;60269;52.502;16.732;2024-03-02T22:03:56;9.32;95.49
72320;SHT30;60269;52.502;16.732;2024-03-02T22:07:28;9.34;95.58
72320;SHT30;60269;52.502;16.732;2024-03-02T22:11:00;9.30;95.76
72320;SHT30;60269;52.502;16.732;2024-03-02T22:14:32;9.30;95.86